sensor_id;sensor_type;location;lat;lon;timestamp;P1;durP1;ratioP1;P2;durP2;ratioP2
54555;SDS011;57291;37.520;15.106;2023-08-01T00:00:44;9.80;;;5.00;;
54555;SDS011;57291;37.520;15.106;2023-08-01T00:03:12;11.23;;;5.10;;
54555;SDS011;57291;37.520;15.106;2023-08-01T00:05:40;7.88;;;4.65;;
54555;SDS011;57291;37.520;15.106;2023-08-01T00:08:27;10.57;;;4.53;;
54555;SDS011;57291;37.520;15.106;2023-08-01T00:10:54;14.30;;;4.35;;
54555;SDS011;57291;37.520;15.106;2023-08-01T00:13:21;11.32;;;4.38;;
54555;SDS011;57291;37.520;15.106;2023-08-01T00:15:49;7.72;;;4.40;;
54555;SDS011;57291;37.520;15.106;2023-08-01T00:18:32;9.70;;;4.53;;
54555;SDS011;57291;37.520;15.106;2023-08-01T00:21:00;10.32;;;3.88;;
54555;SDS011;57291;37.520;15.106;2023-08-01T00:23:27;9.18;;;4.20;;
54555;SDS011;57291;37.520;15.106;2023-08-01T00:25:54;8.00;;;3.80;;
54555;SDS011;57291;37.520;15.106;2023-08-01T00:28:21;7.82;;;4.03;;
54555;SDS011;57291;37.520;15.106;2023-08-01T00:30:49;8.77;;;4.13;;
54555;SDS011;57291;37.520;15.106;2023-08-01T00:33:17;9.75;;;3.83;;
54555;SDS011;57291;37.520;15.106;2023-08-01T00:35:44;9.27;;;3.92;;
54555;SDS011;57291;37.520;15.106;2023-08-01T00:38:11;7.70;;;3.72;;
54555;SDS011;57291;37.520;15.106;2023-08-01T00:40:38;8.43;;;3.85;;
54555;SDS011;57291;37.520;15.106;2023-08-01T00:43:05;7.45;;;3.65;;
54555;SDS011;57291;37.520;15.106;2023-08-01T00:45:32;9.93;;;3.88;;
54555;SDS011;57291;37.520;15.106;2023-08-01T00:47:59;9.30;;;4.10;;
54555;SDS011;57291;37.520;15.106;2023-08-01T00:50:26;7.85;;;4.00;;
54555;SDS011;57291;37.520;15.106;2023-08-01T00:52:53;9.43;;;3.70;;
54555;SDS011;57291;37.520;15.106;2023-08-01T00:55:23;9.25;;;3.92;;
54555;SDS011;57291;37.520;15.106;2023-08-01T00:57:53;5.43;;;3.28;;
54555;SDS011;57291;37.520;15.106;2023-08-01T01:00:20;7.57;;;3.45;;
54555;SDS011;57291;37.520;15.106;2023-08-01T01:02:47;9.68;;;3.92;;
54555;SDS011;57291;37.520;15.106;2023-08-01T01:05:15;10.75;;;3.60;;
54555;SDS011;57291;37.520;15.106;2023-08-01T01:07:42;6.43;;;3.53;;
54555;SDS011;57291;37.520;15.106;2023-08-01T01:10:10;9.02;;;4.15;;
54555;SDS011;57291;37.520;15.106;2023-08-01T01:12:38;7.85;;;3.85;;
54555;SDS011;57291;37.520;15.106;2023-08-01T01:15:05;8.60;;;3.50;;
54555;SDS011;57291;37.520;15.106;2023-08-01T01:17:33;9.30;;;3.47;;
54555;SDS011;57291;37.520;15.106;2023-08-01T01:20:00;8.93;;;3.72;;
54555;SDS011;57291;37.520;15.106;2023-08-01T01:22:27;7.35;;;3.78;;
54555;SDS011;57291;37.520;15.106;2023-08-01T01:24:55;10.15;;;3.72;;
54555;SDS011;57291;37.520;15.106;2023-08-01T01:27:23;8.05;;;4.25;;
54555;SDS011;57291;37.520;15.106;2023-08-01T01:29:51;7.03;;;3.78;;
54555;SDS011;57291;37.520;15.106;2023-08-01T01:32:19;7.22;;;4.00;;
54555;SDS011;57291;37.520;15.106;2023-08-01T01:34:47;8.13;;;3.95;;
54555;SDS011;57291;37.520;15.106;2023-08-01T01:37:14;6.82;;;3.60;;
54555;SDS011;57291;37.520;15.106;2023-08-01T01:39:41;8.55;;;4.40;;
54555;SDS011;57291;37.520;15.106;2023-08-01T01:42:08;9.45;;;3.90;;
54555;SDS011;57291;37.520;15.106;2023-08-01T01:44:36;7.47;;;3.90;;
54555;SDS011;57291;37.520;15.106;2023-08-01T01:47:03;9.55;;;3.97;;
54555;SDS011;57291;37.520;15.106;2023-08-01T01:49:30;7.68;;;3.63;;
54555;SDS011;57291;37.520;15.106;2023-08-01T01:51:57;10.38;;;4.43;;
54555;SDS011;57291;37.520;15.106;2023-08-01T01:54:24;7.15;;;3.95;;
54555;SDS011;57291;37.520;15.106;2023-08-01T01:56:53;8.93;;;4.32;;
54555;SDS011;57291;37.520;15.106;2023-08-01T01:59:20;17.33;;;4.60;;
54555;SDS011;57291;37.520;15.106;2023-08-01T02:01:47;10.13;;;4.15;;
54555;SDS011;57291;37.520;15.106;2023-08-01T02:04:14;10.50;;;4.20;;
54555;SDS011;57291;37.520;15.106;2023-08-01T02:06:41;10.00;;;4.45;;
54555;SDS011;57291;37.520;15.106;2023-08-01T02:09:09;8.10;;;3.83;;
54555;SDS011;57291;37.520;15.106;2023-08-01T02:11:36;7.72;;;3.97;;
54555;SDS011;57291;37.520;15.106;2023-08-01T02:14:03;8.32;;;4.15;;
54555;SDS011;57291;37.520;15.106;2023-08-01T02:16:30;8.15;;;4.25;;
54555;SDS011;57291;37.520;15.106;2023-08-01T02:18:57;8.95;;;3.75;;
54555;SDS011;57291;37.520;15.106;2023-08-01T02:21:24;9.35;;;4.05;;
54555;SDS011;57291;37.520;15.106;2023-08-01T02:23:51;7.53;;;3.38;;
54555;SDS011;57291;37.520;15.106;2023-08-01T02:26:18;8.30;;;4.10;;
54555;SDS011;57291;37.520;15.106;2023-08-01T02:28:45;9.80;;;4.15;;
54555;SDS011;57291;37.520;15.106;2023-08-01T02:31:13;6.53;;;3.53;;
54555;SDS011;57291;37.520;15.106;2023-08-01T02:33:40;8.73;;;4.40;;
54555;SDS011;57291;37.520;15.106;2023-08-01T02:36:07;9.98;;;4.43;;
54555;SDS011;57291;37.520;15.106;2023-08-01T02:38:34;7.80;;;4.20;;
54555;SDS011;57291;37.520;15.106;2023-08-01T02:41:01;10.70;;;4.15;;
54555;SDS011;57291;37.520;15.106;2023-08-01T02:43:29;8.82;;;4.50;;
54555;SDS011;57291;37.520;15.106;2023-08-01T02:45:56;7.97;;;4.10;;
54555;SDS011;57291;37.520;15.106;2023-08-01T02:48:23;9.70;;;4.20;;
54555;SDS011;57291;37.520;15.106;2023-08-01T02:50:50;6.72;;;4.05;;
54555;SDS011;57291;37.520;15.106;2023-08-01T02:53:17;7.00;;;3.80;;
54555;SDS011;57291;37.520;15.106;2023-08-01T02:55:44;11.23;;;4.15;;
54555;SDS011;57291;37.520;15.106;2023-08-01T02:58:14;8.27;;;3.97;;
54555;SDS011;57291;37.520;15.106;2023-08-01T03:00:41;6.95;;;4.10;;
54555;SDS011;57291;37.520;15.106;2023-08-01T03:03:08;9.43;;;4.40;;
54555;SDS011;57291;37.520;15.106;2023-08-01T03:05:36;8.93;;;4.32;;
54555;SDS011;57291;37.520;15.106;2023-08-01T03:08:04;9.38;;;4.20;;
54555;SDS011;57291;37.520;15.106;2023-08-01T03:10:31;8.27;;;4.30;;
54555;SDS011;57291;37.520;15.106;2023-08-01T03:13:02;9.40;;;4.40;;
54555;SDS011;57291;37.520;15.106;2023-08-01T03:15:30;10.18;;;4.13;;
54555;SDS011;57291;37.520;15.106;2023-08-01T03:17:58;8.02;;;4.03;;
54555;SDS011;57291;37.520;15.106;2023-08-01T03:20:27;11.50;;;4.50;;
54555;SDS011;57291;37.520;15.106;2023-08-01T03:22:54;14.55;;;6.38;;
54555;SDS011;57291;37.520;15.106;2023-08-01T03:25:21;15.98;;;6.15;;
54555;SDS011;57291;37.520;15.106;2023-08-01T03:27:49;21.48;;;9.10;;
54555;SDS011;57291;37.520;15.106;2023-08-01T03:30:16;28.60;;;14.77;;
54555;SDS011;57291;37.520;15.106;2023-08-01T03:32:43;28.23;;;15.65;;
54555;SDS011;57291;37.520;15.106;2023-08-01T03:35:10;27.95;;;14.52;;
54555;SDS011;57291;37.520;15.106;2023-08-01T03:37:37;23.33;;;13.00;;
54555;SDS011;57291;37.520;15.106;2023-08-01T03:40:05;20.13;;;11.80;;
54555;SDS011;57291;37.520;15.106;2023-08-01T03:42:35;18.50;;;9.75;;
54555;SDS011;57291;37.520;15.106;2023-08-01T03:45:03;15.20;;;6.75;;
54555;SDS011;57291;37.520;15.106;2023-08-01T03:47:32;14.70;;;6.65;;
54555;SDS011;57291;37.520;15.106;2023-08-01T03:50:00;12.77;;;6.15;;
54555;SDS011;57291;37.520;15.106;2023-08-01T03:52:27;14.00;;;5.97;;
54555;SDS011;57291;37.520;15.106;2023-08-01T03:54:55;12.57;;;5.95;;
54555;SDS011;57291;37.520;15.106;2023-08-01T03:57:22;15.55;;;6.53;;
54555;SDS011;57291;37.520;15.106;2023-08-01T03:59:50;12.15;;;5.95;;
54555;SDS011;57291;37.520;15.106;2023-08-01T04:02:17;10.95;;;5.90;;
54555;SDS011;57291;37.520;15.106;2023-08-01T04:04:45;17.45;;;5.82;;
54555;SDS011;57291;37.520;15.106;2023-08-01T04:07:12;13.57;;;5.68;;
54555;SDS011;57291;37.520;15.106;2023-08-01T04:09:39;13.45;;;5.85;;
54555;SDS011;57291;37.520;15.106;2023-08-01T04:12:06;10.88;;;5.95;;
54555;SDS011;57291;37.520;15.106;2023-08-01T04:14:34;9.05;;;5.57;;
54555;SDS011;57291;37.520;15.106;2023-08-01T04:17:01;14.57;;;6.20;;
54555;SDS011;57291;37.520;15.106;2023-08-01T04:19:28;12.55;;;5.30;;
54555;SDS011;57291;37.520;15.106;2023-08-01T04:21:55;12.13;;;5.13;;
54555;SDS011;57291;37.520;15.106;2023-08-01T04:24:22;9.13;;;4.88;;
54555;SDS011;57291;37.520;15.106;2023-08-01T04:26:52;9.55;;;4.97;;
54555;SDS011;57291;37.520;15.106;2023-08-01T04:29:19;11.05;;;4.95;;
54555;SDS011;57291;37.520;15.106;2023-08-01T04:31:46;12.65;;;5.70;;
54555;SDS011;57291;37.520;15.106;2023-08-01T04:34:13;11.90;;;5.10;;
54555;SDS011;57291;37.520;15.106;2023-08-01T04:36:40;12.68;;;5.18;;
54555;SDS011;57291;37.520;15.106;2023-08-01T04:39:08;10.48;;;5.30;;
54555;SDS011;57291;37.520;15.106;2023-08-01T04:41:35;12.25;;;5.57;;
54555;SDS011;57291;37.520;15.106;2023-08-01T04:44:03;10.10;;;5.18;;
54555;SDS011;57291;37.520;15.106;2023-08-01T04:46:30;15.32;;;6.35;;
54555;SDS011;57291;37.520;15.106;2023-08-01T04:48:57;17.65;;;6.15;;
54555;SDS011;57291;37.520;15.106;2023-08-01T04:51:25;10.25;;;5.78;;
54555;SDS011;57291;37.520;15.106;2023-08-01T04:53:52;12.10;;;5.60;;
54555;SDS011;57291;37.520;15.106;2023-08-01T04:56:19;9.63;;;5.50;;
54555;SDS011;57291;37.520;15.106;2023-08-01T04:58:46;15.90;;;6.13;;
54555;SDS011;57291;37.520;15.106;2023-08-01T05:01:14;12.98;;;6.28;;
54555;SDS011;57291;37.520;15.106;2023-08-01T05:03:41;10.50;;;6.20;;
54555;SDS011;57291;37.520;15.106;2023-08-01T05:06:08;11.27;;;6.15;;
54555;SDS011;57291;37.520;15.106;2023-08-01T05:08:35;14.15;;;5.40;;
54555;SDS011;57291;37.520;15.106;2023-08-01T05:11:02;15.25;;;6.03;;
54555;SDS011;57291;37.520;15.106;2023-08-01T05:13:29;9.57;;;4.80;;
54555;SDS011;57291;37.520;15.106;2023-08-01T05:15:56;11.52;;;5.38;;
54555;SDS011;57291;37.520;15.106;2023-08-01T05:18:24;11.25;;;4.40;;
54555;SDS011;57291;37.520;15.106;2023-08-01T05:20:51;8.73;;;3.78;;
54555;SDS011;57291;37.520;15.106;2023-08-01T05:23:18;8.95;;;3.80;;
54555;SDS011;57291;37.520;15.106;2023-08-01T05:25:45;10.55;;;4.40;;
54555;SDS011;57291;37.520;15.106;2023-08-01T05:28:12;7.07;;;3.53;;
54555;SDS011;57291;37.520;15.106;2023-08-01T05:30:40;5.90;;;3.22;;
54555;SDS011;57291;37.520;15.106;2023-08-01T05:33:07;7.35;;;3.53;;
54555;SDS011;57291;37.520;15.106;2023-08-01T05:35:34;5.88;;;3.33;;
54555;SDS011;57291;37.520;15.106;2023-08-01T05:38:01;6.50;;;3.20;;
54555;SDS011;57291;37.520;15.106;2023-08-01T05:40:28;6.57;;;3.42;;
54555;SDS011;57291;37.520;15.106;2023-08-01T05:42:55;4.75;;;2.42;;
54555;SDS011;57291;37.520;15.106;2023-08-01T05:45:22;5.25;;;2.58;;
54555;SDS011;57291;37.520;15.106;2023-08-01T05:47:49;5.05;;;2.88;;
54555;SDS011;57291;37.520;15.106;2023-08-01T05:50:16;4.68;;;2.63;;
54555;SDS011;57291;37.520;15.106;2023-08-01T05:52:43;9.73;;;3.40;;
54555;SDS011;57291;37.520;15.106;2023-08-01T05:55:10;5.55;;;3.10;;
54555;SDS011;57291;37.520;15.106;2023-08-01T05:57:38;9.57;;;3.83;;
54555;SDS011;57291;37.520;15.106;2023-08-01T06:00:05;5.97;;;2.60;;
54555;SDS011;57291;37.520;15.106;2023-08-01T06:02:42;9.52;;;3.38;;
54555;SDS011;57291;37.520;15.106;2023-08-01T06:05:09;9.15;;;3.75;;
54555;SDS011;57291;37.520;15.106;2023-08-01T06:07:36;8.63;;;3.60;;
54555;SDS011;57291;37.520;15.106;2023-08-01T06:10:03;14.23;;;4.45;;
54555;SDS011;57291;37.520;15.106;2023-08-01T06:12:30;10.77;;;4.82;;
54555;SDS011;57291;37.520;15.106;2023-08-01T06:14:58;12.27;;;4.25;;
54555;SDS011;57291;37.520;15.106;2023-08-01T06:17:25;5.72;;;3.80;;
54555;SDS011;57291;37.520;15.106;2023-08-01T06:19:52;7.30;;;3.88;;
54555;SDS011;57291;37.520;15.106;2023-08-01T06:22:21;8.23;;;3.80;;
54555;SDS011;57291;37.520;15.106;2023-08-01T06:24:48;8.35;;;3.47;;
54555;SDS011;57291;37.520;15.106;2023-08-01T06:27:15;10.25;;;3.40;;
54555;SDS011;57291;37.520;15.106;2023-08-01T06:29:44;5.35;;;2.90;;
54555;SDS011;57291;37.520;15.106;2023-08-01T06:32:12;9.15;;;3.83;;
54555;SDS011;57291;37.520;15.106;2023-08-01T06:34:39;12.63;;;4.43;;
54555;SDS011;57291;37.520;15.106;2023-08-01T06:37:06;10.45;;;4.80;;
54555;SDS011;57291;37.520;15.106;2023-08-01T06:39:33;11.85;;;4.55;;
54555;SDS011;57291;37.520;15.106;2023-08-01T06:42:00;10.63;;;4.50;;
54555;SDS011;57291;37.520;15.106;2023-08-01T06:44:27;9.23;;;3.97;;
54555;SDS011;57291;37.520;15.106;2023-08-01T06:46:54;8.25;;;4.18;;
54555;SDS011;57291;37.520;15.106;2023-08-01T06:49:22;9.68;;;4.35;;
54555;SDS011;57291;37.520;15.106;2023-08-01T06:51:49;10.48;;;4.35;;
54555;SDS011;57291;37.520;15.106;2023-08-01T06:54:16;10.50;;;3.85;;
54555;SDS011;57291;37.520;15.106;2023-08-01T06:56:43;9.13;;;3.88;;
54555;SDS011;57291;37.520;15.106;2023-08-01T06:59:14;8.38;;;4.57;;
54555;SDS011;57291;37.520;15.106;2023-08-01T07:01:41;10.50;;;4.28;;
54555;SDS011;57291;37.520;15.106;2023-08-01T07:04:11;8.50;;;3.45;;
54555;SDS011;57291;37.520;15.106;2023-08-01T07:06:39;9.05;;;3.45;;
54555;SDS011;57291;37.520;15.106;2023-08-01T07:09:07;7.22;;;3.20;;
54555;SDS011;57291;37.520;15.106;2023-08-01T07:11:34;8.55;;;3.72;;
54555;SDS011;57291;37.520;15.106;2023-08-01T07:14:02;9.30;;;3.80;;
54555;SDS011;57291;37.520;15.106;2023-08-01T07:16:29;8.20;;;3.70;;
54555;SDS011;57291;37.520;15.106;2023-08-01T07:19:00;11.73;;;3.67;;
54555;SDS011;57291;37.520;15.106;2023-08-01T07:21:27;8.07;;;3.75;;
54555;SDS011;57291;37.520;15.106;2023-08-01T07:23:55;8.13;;;3.25;;
54555;SDS011;57291;37.520;15.106;2023-08-01T07:26:24;8.40;;;3.72;;
54555;SDS011;57291;37.520;15.106;2023-08-01T07:28:51;7.55;;;3.70;;
54555;SDS011;57291;37.520;15.106;2023-08-01T07:31:18;10.05;;;3.97;;
54555;SDS011;57291;37.520;15.106;2023-08-01T07:33:45;15.10;;;3.35;;
54555;SDS011;57291;37.520;15.106;2023-08-01T07:36:13;6.57;;;3.70;;
54555;SDS011;57291;37.520;15.106;2023-08-01T07:38:40;10.23;;;3.70;;
54555;SDS011;57291;37.520;15.106;2023-08-01T07:41:07;7.85;;;3.80;;
54555;SDS011;57291;37.520;15.106;2023-08-01T07:43:34;14.45;;;4.35;;
54555;SDS011;57291;37.520;15.106;2023-08-01T07:46:01;12.07;;;5.07;;
54555;SDS011;57291;37.520;15.106;2023-08-01T07:48:28;13.55;;;6.40;;
54555;SDS011;57291;37.520;15.106;2023-08-01T07:50:56;16.67;;;7.65;;
54555;SDS011;57291;37.520;15.106;2023-08-01T07:53:23;22.17;;;9.57;;
54555;SDS011;57291;37.520;15.106;2023-08-01T07:55:51;16.83;;;7.70;;
54555;SDS011;57291;37.520;15.106;2023-08-01T07:58:19;13.68;;;7.10;;
54555;SDS011;57291;37.520;15.106;2023-08-01T08:00:47;14.05;;;7.20;;
54555;SDS011;57291;37.520;15.106;2023-08-01T08:03:14;16.88;;;7.65;;
54555;SDS011;57291;37.520;15.106;2023-08-01T08:05:41;10.23;;;4.90;;
54555;SDS011;57291;37.520;15.106;2023-08-01T08:08:09;12.60;;;6.07;;
54555;SDS011;57291;37.520;15.106;2023-08-01T08:10:36;10.70;;;5.63;;
54555;SDS011;57291;37.520;15.106;2023-08-01T08:13:07;12.00;;;5.40;;
54555;SDS011;57291;37.520;15.106;2023-08-01T08:15:34;11.88;;;5.60;;
54555;SDS011;57291;37.520;15.106;2023-08-01T08:18:02;11.85;;;5.10;;
54555;SDS011;57291;37.520;15.106;2023-08-01T08:20:40;10.80;;;4.88;;
54555;SDS011;57291;37.520;15.106;2023-08-01T08:23:09;7.55;;;3.85;;
54555;SDS011;57291;37.520;15.106;2023-08-01T08:25:37;7.43;;;3.50;;
54555;SDS011;57291;37.520;15.106;2023-08-01T08:28:04;8.30;;;3.08;;
54555;SDS011;57291;37.520;15.106;2023-08-01T08:30:31;6.10;;;3.00;;
54555;SDS011;57291;37.520;15.106;2023-08-01T08:32:58;4.70;;;2.60;;
54555;SDS011;57291;37.520;15.106;2023-08-01T08:35:31;4.97;;;2.78;;
54555;SDS011;57291;37.520;15.106;2023-08-01T08:37:58;5.60;;;2.70;;
54555;SDS011;57291;37.520;15.106;2023-08-01T08:40:26;11.45;;;3.40;;
54555;SDS011;57291;37.520;15.106;2023-08-01T08:42:54;6.25;;;3.10;;
54555;SDS011;57291;37.520;15.106;2023-08-01T08:45:22;11.57;;;3.05;;
54555;SDS011;57291;37.520;15.106;2023-08-01T08:47:53;7.70;;;3.00;;
54555;SDS011;57291;37.520;15.106;2023-08-01T08:50:22;6.78;;;3.10;;
54555;SDS011;57291;37.520;15.106;2023-08-01T08:52:50;6.25;;;2.75;;
54555;SDS011;57291;37.520;15.106;2023-08-01T08:55:19;6.80;;;3.03;;
54555;SDS011;57291;37.520;15.106;2023-08-01T08:57:49;6.38;;;3.00;;
54555;SDS011;57291;37.520;15.106;2023-08-01T09:00:19;5.53;;;2.80;;
54555;SDS011;57291;37.520;15.106;2023-08-01T09:02:47;5.32;;;2.85;;
54555;SDS011;57291;37.520;15.106;2023-08-01T09:05:14;6.38;;;3.25;;
54555;SDS011;57291;37.520;15.106;2023-08-01T09:07:42;5.57;;;3.05;;
54555;SDS011;57291;37.520;15.106;2023-08-01T09:10:16;5.35;;;3.00;;
54555;SDS011;57291;37.520;15.106;2023-08-01T09:12:43;6.20;;;2.90;;
54555;SDS011;57291;37.520;15.106;2023-08-01T09:15:10;8.07;;;3.10;;
54555;SDS011;57291;37.520;15.106;2023-08-01T09:17:47;6.30;;;3.35;;
54555;SDS011;57291;37.520;15.106;2023-08-01T09:20:18;7.63;;;3.40;;
54555;SDS011;57291;37.520;15.106;2023-08-01T09:22:46;5.22;;;3.20;;
54555;SDS011;57291;37.520;15.106;2023-08-01T09:25:14;10.23;;;3.92;;
54555;SDS011;57291;37.520;15.106;2023-08-01T09:27:41;6.97;;;3.20;;
54555;SDS011;57291;37.520;15.106;2023-08-01T09:30:10;9.13;;;3.72;;
54555;SDS011;57291;37.520;15.106;2023-08-01T09:32:40;6.85;;;3.70;;
54555;SDS011;57291;37.520;15.106;2023-08-01T09:35:07;5.38;;;3.03;;
54555;SDS011;57291;37.520;15.106;2023-08-01T09:37:38;7.15;;;3.22;;
54555;SDS011;57291;37.520;15.106;2023-08-01T09:42:38;6.85;;;3.40;;
54555;SDS011;57291;37.520;15.106;2023-08-01T09:45:13;7.43;;;3.53;;
54555;SDS011;57291;37.520;15.106;2023-08-01T09:47:43;7.85;;;3.20;;
54555;SDS011;57291;37.520;15.106;2023-08-01T09:50:21;8.60;;;3.25;;
54555;SDS011;57291;37.520;15.106;2023-08-01T09:52:50;7.50;;;3.95;;
54555;SDS011;57291;37.520;15.106;2023-08-01T09:55:31;8.35;;;3.42;;
54555;SDS011;57291;37.520;15.106;2023-08-01T09:57:59;7.70;;;3.40;;
54555;SDS011;57291;37.520;15.106;2023-08-01T10:00:28;6.97;;;3.20;;
54555;SDS011;57291;37.520;15.106;2023-08-01T10:02:59;6.15;;;3.22;;
54555;SDS011;57291;37.520;15.106;2023-08-01T10:05:29;5.68;;;3.30;;
54555;SDS011;57291;37.520;15.106;2023-08-01T10:07:59;7.38;;;3.22;;
54555;SDS011;57291;37.520;15.106;2023-08-01T10:10:27;6.65;;;3.15;;
54555;SDS011;57291;37.520;15.106;2023-08-01T10:12:56;8.20;;;3.25;;
54555;SDS011;57291;37.520;15.106;2023-08-01T10:15:24;7.80;;;3.80;;
54555;SDS011;57291;37.520;15.106;2023-08-01T10:17:52;7.28;;;4.28;;
54555;SDS011;57291;37.520;15.106;2023-08-01T10:20:20;9.80;;;4.50;;
54555;SDS011;57291;37.520;15.106;2023-08-01T10:22:51;13.10;;;5.03;;
54555;SDS011;57291;37.520;15.106;2023-08-01T10:25:19;12.30;;;5.03;;
54555;SDS011;57291;37.520;15.106;2023-08-01T10:27:58;9.60;;;4.80;;
54555;SDS011;57291;37.520;15.106;2023-08-01T10:30:26;9.55;;;4.40;;
54555;SDS011;57291;37.520;15.106;2023-08-01T10:32:55;7.65;;;4.00;;
54555;SDS011;57291;37.520;15.106;2023-08-01T10:35:37;7.55;;;4.45;;
54555;SDS011;57291;37.520;15.106;2023-08-01T10:38:05;8.52;;;3.80;;
54555;SDS011;57291;37.520;15.106;2023-08-01T10:40:38;9.40;;;3.88;;
54555;SDS011;57291;37.520;15.106;2023-08-01T10:43:19;6.82;;;3.30;;
54555;SDS011;57291;37.520;15.106;2023-08-01T10:45:48;6.38;;;3.75;;
54555;SDS011;57291;37.520;15.106;2023-08-01T10:48:16;8.50;;;3.88;;
54555;SDS011;57291;37.520;15.106;2023-08-01T10:50:43;7.82;;;3.13;;
54555;SDS011;57291;37.520;15.106;2023-08-01T10:53:23;11.05;;;3.65;;
54555;SDS011;57291;37.520;15.106;2023-08-01T10:55:51;6.30;;;3.50;;
54555;SDS011;57291;37.520;15.106;2023-08-01T10:58:19;8.40;;;3.20;;
54555;SDS011;57291;37.520;15.106;2023-08-01T11:00:46;6.35;;;2.90;;
54555;SDS011;57291;37.520;15.106;2023-08-01T11:03:37;6.28;;;3.50;;
54555;SDS011;57291;37.520;15.106;2023-08-01T11:06:05;7.93;;;3.47;;
54555;SDS011;57291;37.520;15.106;2023-08-01T11:08:37;6.18;;;2.90;;
54555;SDS011;57291;37.520;15.106;2023-08-01T11:13:34;5.88;;;2.92;;
54555;SDS011;57291;37.520;15.106;2023-08-01T11:16:03;8.40;;;3.28;;
54555;SDS011;57291;37.520;15.106;2023-08-01T11:18:43;7.50;;;3.05;;
54555;SDS011;57291;37.520;15.106;2023-08-01T11:21:12;5.88;;;3.42;;
54555;SDS011;57291;37.520;15.106;2023-08-01T11:23:39;10.38;;;3.80;;
54555;SDS011;57291;37.520;15.106;2023-08-01T11:26:09;6.70;;;3.40;;
54555;SDS011;57291;37.520;15.106;2023-08-01T11:28:37;6.10;;;3.55;;
54555;SDS011;57291;37.520;15.106;2023-08-01T11:31:11;7.70;;;3.28;;
54555;SDS011;57291;37.520;15.106;2023-08-01T11:33:39;5.20;;;3.15;;
54555;SDS011;57291;37.520;15.106;2023-08-01T11:36:06;8.68;;;3.60;;
54555;SDS011;57291;37.520;15.106;2023-08-01T11:38:37;6.93;;;3.47;;
54555;SDS011;57291;37.520;15.106;2023-08-01T11:41:05;6.32;;;3.55;;
54555;SDS011;57291;37.520;15.106;2023-08-01T11:43:42;5.03;;;3.03;;
54555;SDS011;57291;37.520;15.106;2023-08-01T11:46:09;8.35;;;3.53;;
54555;SDS011;57291;37.520;15.106;2023-08-01T11:48:37;8.80;;;2.90;;
54555;SDS011;57291;37.520;15.106;2023-08-01T11:51:04;7.60;;;3.30;;
54555;SDS011;57291;37.520;15.106;2023-08-01T11:53:31;7.93;;;3.30;;
54555;SDS011;57291;37.520;15.106;2023-08-01T11:56:05;9.02;;;2.67;;
54555;SDS011;57291;37.520;15.106;2023-08-01T12:01:11;6.50;;;2.92;;
54555;SDS011;57291;37.520;15.106;2023-08-01T12:03:46;5.07;;;2.70;;
54555;SDS011;57291;37.520;15.106;2023-08-01T12:06:17;8.40;;;3.88;;
54555;SDS011;57291;37.520;15.106;2023-08-01T12:08:47;6.72;;;3.13;;
54555;SDS011;57291;37.520;15.106;2023-08-01T12:11:23;8.50;;;3.00;;
54555;SDS011;57291;37.520;15.106;2023-08-01T12:14:09;7.30;;;3.17;;
54555;SDS011;57291;37.520;15.106;2023-08-01T12:16:38;5.63;;;2.73;;
54555;SDS011;57291;37.520;15.106;2023-08-01T12:19:08;6.88;;;2.75;;
54555;SDS011;57291;37.520;15.106;2023-08-01T12:21:36;7.47;;;2.60;;
54555;SDS011;57291;37.520;15.106;2023-08-01T12:24:03;4.70;;;2.80;;
54555;SDS011;57291;37.520;15.106;2023-08-01T12:26:31;5.50;;;2.72;;
54555;SDS011;57291;37.520;15.106;2023-08-01T12:28:58;5.05;;;3.15;;
54555;SDS011;57291;37.520;15.106;2023-08-01T12:31:25;5.07;;;2.63;;
54555;SDS011;57291;37.520;15.106;2023-08-01T12:33:52;8.15;;;2.90;;
54555;SDS011;57291;37.520;15.106;2023-08-01T12:36:20;8.55;;;2.92;;
54555;SDS011;57291;37.520;15.106;2023-08-01T12:38:48;6.30;;;2.85;;
54555;SDS011;57291;37.520;15.106;2023-08-01T12:41:15;6.28;;;2.67;;
54555;SDS011;57291;37.520;15.106;2023-08-01T12:43:42;7.28;;;3.03;;
54555;SDS011;57291;37.520;15.106;2023-08-01T12:46:10;5.57;;;2.95;;
54555;SDS011;57291;37.520;15.106;2023-08-01T12:48:37;6.35;;;2.70;;
54555;SDS011;57291;37.520;15.106;2023-08-01T12:51:04;7.05;;;3.00;;
54555;SDS011;57291;37.520;15.106;2023-08-01T12:53:31;5.78;;;3.00;;
54555;SDS011;57291;37.520;15.106;2023-08-01T12:58:31;4.18;;;2.65;;
54555;SDS011;57291;37.520;15.106;2023-08-01T13:00:58;5.30;;;2.60;;
54555;SDS011;57291;37.520;15.106;2023-08-01T13:03:25;7.43;;;3.33;;
54555;SDS011;57291;37.520;15.106;2023-08-01T13:05:55;8.95;;;2.50;;
54555;SDS011;57291;37.520;15.106;2023-08-01T13:08:23;6.10;;;2.85;;
54555;SDS011;57291;37.520;15.106;2023-08-01T13:10:51;8.23;;;3.22;;
54555;SDS011;57291;37.520;15.106;2023-08-01T13:13:21;4.60;;;2.17;;
54555;SDS011;57291;37.520;15.106;2023-08-01T13:15:49;5.15;;;2.88;;
54555;SDS011;57291;37.520;15.106;2023-08-01T13:18:16;4.72;;;2.70;;
54555;SDS011;57291;37.520;15.106;2023-08-01T13:20:44;7.70;;;3.03;;
54555;SDS011;57291;37.520;15.106;2023-08-01T13:23:11;6.97;;;3.08;;
54555;SDS011;57291;37.520;15.106;2023-08-01T13:25:38;6.82;;;3.22;;
54555;SDS011;57291;37.520;15.106;2023-08-01T13:28:05;5.97;;;2.90;;
54555;SDS011;57291;37.520;15.106;2023-08-01T13:30:33;6.32;;;3.08;;
54555;SDS011;57291;37.520;15.106;2023-08-01T13:33:00;5.78;;;3.00;;
54555;SDS011;57291;37.520;15.106;2023-08-01T13:35:27;7.22;;;3.10;;
54555;SDS011;57291;37.520;15.106;2023-08-01T13:37:54;6.53;;;3.30;;
54555;SDS011;57291;37.520;15.106;2023-08-01T13:40:21;7.07;;;2.90;;
54555;SDS011;57291;37.520;15.106;2023-08-01T13:42:48;7.72;;;3.67;;
54555;SDS011;57291;37.520;15.106;2023-08-01T13:45:15;6.28;;;3.55;;
54555;SDS011;57291;37.520;15.106;2023-08-01T13:47:42;7.95;;;3.33;;
54555;SDS011;57291;37.520;15.106;2023-08-01T13:50:10;6.05;;;3.03;;
54555;SDS011;57291;37.520;15.106;2023-08-01T13:52:37;6.05;;;3.00;;
54555;SDS011;57291;37.520;15.106;2023-08-01T13:55:04;8.80;;;3.38;;
54555;SDS011;57291;37.520;15.106;2023-08-01T13:57:34;6.07;;;3.22;;
54555;SDS011;57291;37.520;15.106;2023-08-01T14:00:01;7.22;;;3.17;;
54555;SDS011;57291;37.520;15.106;2023-08-01T14:02:41;8.43;;;3.70;;
54555;SDS011;57291;37.520;15.106;2023-08-01T14:05:09;5.53;;;3.17;;
54555;SDS011;57291;37.520;15.106;2023-08-01T14:07:36;5.60;;;2.97;;
54555;SDS011;57291;37.520;15.106;2023-08-01T14:12:36;8.90;;;3.20;;
54555;SDS011;57291;37.520;15.106;2023-08-01T14:15:04;6.75;;;3.53;;
54555;SDS011;57291;37.520;15.106;2023-08-01T14:17:32;10.07;;;3.75;;
54555;SDS011;57291;37.520;15.106;2023-08-01T14:20:00;5.93;;;3.38;;
54555;SDS011;57291;37.520;15.106;2023-08-01T14:22:28;10.70;;;3.50;;
54555;SDS011;57291;37.520;15.106;2023-08-01T14:24:54;9.82;;;3.60;;
54555;SDS011;57291;37.520;15.106;2023-08-01T14:27:22;7.47;;;3.45;;
54555;SDS011;57291;37.520;15.106;2023-08-01T14:29:49;5.22;;;3.35;;
54555;SDS011;57291;37.520;15.106;2023-08-01T14:32:17;9.35;;;3.83;;
54555;SDS011;57291;37.520;15.106;2023-08-01T14:34:46;6.28;;;3.30;;
54555;SDS011;57291;37.520;15.106;2023-08-01T14:37:13;5.53;;;3.15;;
54555;SDS011;57291;37.520;15.106;2023-08-01T14:39:40;8.30;;;3.47;;
54555;SDS011;57291;37.520;15.106;2023-08-01T14:42:07;7.63;;;3.28;;
54555;SDS011;57291;37.520;15.106;2023-08-01T14:44:36;7.90;;;3.03;;
54555;SDS011;57291;37.520;15.106;2023-08-01T14:47:03;6.70;;;3.45;;
54555;SDS011;57291;37.520;15.106;2023-08-01T14:49:31;10.77;;;3.15;;